Meteo Giornale » Osservazioni meteo Repubblica Dominicana » Punta Cana
ore: 15:00 - Osservazioni Meteo Punta Cana
Lat. 18° 34' N Lon. 68° 22' W Alt. 12 metri s.l.m.
30 °C
Nuvoloso
Temp. 24 Ore
27 °C
31 °C
Sud/Sud-Est
22.2 Km/h
Dew point 25 °C
Umidità 74 %
Visibilità 10 Km
Il sole sorge alle ore 06:18
Il sole tramonta alle ore 18:48
| Data e Ora | Cielo e Fenomeni | T °C | DP °C | Um. % | Pres. hPa | Vis. km | Vento km/h | |
|---|---|---|---|---|---|---|---|---|
| Oggi h: 15:00 | Nuvoloso | 30 | 25 | 74 | 1015 | 10 | S/SE 22.2 | |
| Oggi h: 14:00 | Molto Nuvoloso | 30 | 25 | 74 | 1015 | 10 | S/SE 18.5 | |
| Oggi h: 13:00 | Molto Nuvoloso | 30 | 25 | 74 | 1016 | 10 | S 18.5 | |
| Oggi h: 12:00 | Temporale | 29 | 26 | 83 | 1016 | 10 | S/SE 13 | |
| Oggi h: 11:00 | Temporale | 29 | 26 | 83 | 1016 | 10 | S/SE 9.3 | |
| Oggi h: 10:00 | Temporale | 30 | 26 | 79 | 1015 | 10 | S/SE 18.5 | |
| Oggi h: 09:05 | Temporale | 29 | 25 | 79 | 1014 | 8 | S/SE 20.3 | |
| Oggi h: 09:00 | Temporale | 30 | 25 | 74 | 1014 | 10 | S/SE 25.9 | |
| Oggi h: 08:00 | Nuvoloso | 30 | 25 | 74 | 1014 | 10 | S/SE 16.7 | |
| Oggi h: 07:00 | Poco Nuvoloso | 29 | 25 | 79 | 1013 | 10 | S/SE 13 | |
| Oggi h: 06:00 | Molto Nuvoloso | 28 | 25 | 83 | 1013 | 10 | S/SE 13 | |
| Oggi h: 05:00 | Molto Nuvoloso | 28 | 25 | 83 | 1013 | 10 | S/SE 14.8 | |
| Oggi h: 04:00 | Molto Nuvoloso | 28 | 25 | 83 | 1013 | 10 | SE 16.7 | |
| Oggi h: 03:00 | Molto Nuvoloso | 28 | 25 | 83 | 1013 | 10 | SE 13 | |
| Oggi h: 02:00 | Temporale | 28 | 25 | 83 | 1013 | 10 | S/SE 14.8 | |
| Oggi h: 01:20 | Temporale | 28 | 25 | 83 | 1013 | 10 | E/SE 9.3 | |
| Oggi h: 01:00 | Pioggia | 27 | 25 | 88 | 1013 | 8 | N 5.5 | |
| Oggi h: 00:00 | Pioggia | 28 | 25 | 83 | 1014 | 8 | SE 13 | |
| Ieri h: 23:00 | Poco Nuvoloso | 28 | 26 | 88 | 1014 | 10 | N 0 | |
| Ieri h: 22:00 | Temporale | 28 | 26 | 88 | 1014 | 10 | N 5.5 | |
| Ieri h: 21:00 | Nuvoloso | 29 | 25 | 79 | 1014 | 10 | NE 11.1 | |
| Ieri h: 20:00 | Nuvoloso | 29 | 26 | 83 | 1012 | 10 | N/NE 13 | |
| Ieri h: 19:00 | Molto Nuvoloso | 29 | 26 | 83 | 1012 | 10 | N/NE 14.8 | |
| Ieri h: 18:00 | Molto Nuvoloso | 29 | 26 | 83 | 1012 | 10 | N 13 | |
| Ieri h: 17:00 | Nuvoloso | 30 | 26 | 79 | 1012 | 10 | N/NE 11.1 | |
| Ieri h: 16:00 | Nuvoloso | 31 | 26 | 74 | 1013 | 10 | E/NE 18.5 | |



